sensor_id;sensor_type;location;lat;lon;timestamp;P1;durP1;ratioP1;P2;durP2;ratioP2
51122;SDS011;37162;41.724;13.346;2024-02-23T00:00:37;3.05;;;2.30;;
51122;SDS011;37162;41.724;13.346;2024-02-23T00:03:03;2.50;;;2.10;;
51122;SDS011;37162;41.724;13.346;2024-02-23T00:05:28;4.00;;;2.83;;
51122;SDS011;37162;41.724;13.346;2024-02-23T00:07:54;2.63;;;1.85;;
51122;SDS011;37162;41.724;13.346;2024-02-23T00:10:19;3.22;;;2.40;;
51122;SDS011;37162;41.724;13.346;2024-02-23T00:12:45;3.35;;;1.90;;
51122;SDS011;37162;41.724;13.346;2024-02-23T00:15:12;2.80;;;2.17;;
51122;SDS011;37162;41.724;13.346;2024-02-23T00:17:38;2.65;;;2.20;;
51122;SDS011;37162;41.724;13.346;2024-02-23T00:20:04;3.85;;;1.80;;
51122;SDS011;37162;41.724;13.346;2024-02-23T00:22:32;4.50;;;2.10;;
51122;SDS011;37162;41.724;13.346;2024-02-23T00:24:58;3.55;;;2.20;;
51122;SDS011;37162;41.724;13.346;2024-02-23T00:27:24;2.25;;;1.92;;
51122;SDS011;37162;41.724;13.346;2024-02-23T00:29:49;6.05;;;2.85;;
51122;SDS011;37162;41.724;13.346;2024-02-23T00:32:15;2.80;;;2.22;;
51122;SDS011;37162;41.724;13.346;2024-02-23T00:34:40;3.40;;;2.35;;
51122;SDS011;37162;41.724;13.346;2024-02-23T00:37:06;3.63;;;2.30;;
51122;SDS011;37162;41.724;13.346;2024-02-23T00:39:33;4.68;;;3.20;;
51122;SDS011;37162;41.724;13.346;2024-02-23T00:41:58;4.20;;;2.30;;
51122;SDS011;37162;41.724;13.346;2024-02-23T00:44:24;3.38;;;2.33;;
51122;SDS011;37162;41.724;13.346;2024-02-23T00:46:49;2.75;;;2.05;;
51122;SDS011;37162;41.724;13.346;2024-02-23T00:49:15;2.35;;;2.13;;
51122;SDS011;37162;41.724;13.346;2024-02-23T00:51:40;5.63;;;2.47;;
51122;SDS011;37162;41.724;13.346;2024-02-23T00:54:05;2.40;;;1.70;;
51122;SDS011;37162;41.724;13.346;2024-02-23T00:56:33;2.90;;;2.25;;
51122;SDS011;37162;41.724;13.346;2024-02-23T00:58:58;3.10;;;2.00;;
51122;SDS011;37162;41.724;13.346;2024-02-23T01:01:24;5.65;;;2.50;;
51122;SDS011;37162;41.724;13.346;2024-02-23T01:03:51;3.15;;;2.00;;
51122;SDS011;37162;41.724;13.346;2024-02-23T01:06:16;3.13;;;2.38;;
51122;SDS011;37162;41.724;13.346;2024-02-23T01:08:42;2.60;;;2.13;;
51122;SDS011;37162;41.724;13.346;2024-02-23T01:11:08;4.47;;;2.17;;
51122;SDS011;37162;41.724;13.346;2024-02-23T01:13:33;2.30;;;1.85;;
51122;SDS011;37162;41.724;13.346;2024-02-23T01:15:59;3.22;;;2.08;;
51122;SDS011;37162;41.724;13.346;2024-02-23T01:18:24;10.00;;;2.08;;
51122;SDS011;37162;41.724;13.346;2024-02-23T01:20:49;2.83;;;1.90;;
51122;SDS011;37162;41.724;13.346;2024-02-23T01:23:15;3.15;;;2.15;;
51122;SDS011;37162;41.724;13.346;2024-02-23T01:25:40;4.82;;;1.83;;
51122;SDS011;37162;41.724;13.346;2024-02-23T01:28:06;3.25;;;2.00;;
51122;SDS011;37162;41.724;13.346;2024-02-23T01:30:31;2.75;;;2.10;;
51122;SDS011;37162;41.724;13.346;2024-02-23T01:32:57;4.05;;;2.20;;
51122;SDS011;37162;41.724;13.346;2024-02-23T01:35:22;2.70;;;2.00;;
51122;SDS011;37162;41.724;13.346;2024-02-23T01:37:48;2.63;;;2.15;;
51122;SDS011;37162;41.724;13.346;2024-02-23T01:40:13;2.38;;;2.13;;
51122;SDS011;37162;41.724;13.346;2024-02-23T01:42:39;3.63;;;2.20;;
51122;SDS011;37162;41.724;13.346;2024-02-23T01:45:04;2.80;;;2.13;;
51122;SDS011;37162;41.724;13.346;2024-02-23T01:47:30;2.70;;;2.08;;
51122;SDS011;37162;41.724;13.346;2024-02-23T01:49:56;3.55;;;2.00;;
51122;SDS011;37162;41.724;13.346;2024-02-23T01:52:24;2.92;;;1.98;;
51122;SDS011;37162;41.724;13.346;2024-02-23T01:54:49;3.15;;;1.90;;
51122;SDS011;37162;41.724;13.346;2024-02-23T01:57:16;3.20;;;1.98;;
51122;SDS011;37162;41.724;13.346;2024-02-23T01:59:42;2.67;;;1.98;;
51122;SDS011;37162;41.724;13.346;2024-02-23T02:02:08;3.88;;;2.20;;
51122;SDS011;37162;41.724;13.346;2024-02-23T02:04:33;2.22;;;2.03;;
51122;SDS011;37162;41.724;13.346;2024-02-23T02:06:59;2.25;;;1.80;;
51122;SDS011;37162;41.724;13.346;2024-02-23T02:09:26;4.72;;;2.10;;
51122;SDS011;37162;41.724;13.346;2024-02-23T02:11:51;2.45;;;2.25;;
51122;SDS011;37162;41.724;13.346;2024-02-23T02:14:17;2.75;;;2.20;;
51122;SDS011;37162;41.724;13.346;2024-02-23T02:16:43;4.97;;;1.95;;
51122;SDS011;37162;41.724;13.346;2024-02-23T02:19:10;2.55;;;2.00;;
51122;SDS011;37162;41.724;13.346;2024-02-23T02:21:36;1.95;;;1.67;;
51122;SDS011;37162;41.724;13.346;2024-02-23T02:24:02;1.63;;;1.50;;
51122;SDS011;37162;41.724;13.346;2024-02-23T02:26:28;3.17;;;2.10;;
51122;SDS011;37162;41.724;13.346;2024-02-23T02:28:54;2.25;;;1.63;;
51122;SDS011;37162;41.724;13.346;2024-02-23T02:31:20;2.00;;;1.73;;
51122;SDS011;37162;41.724;13.346;2024-02-23T02:33:45;2.67;;;1.60;;
51122;SDS011;37162;41.724;13.346;2024-02-23T02:36:11;1.60;;;1.48;;
51122;SDS011;37162;41.724;13.346;2024-02-23T02:38:37;2.95;;;2.10;;
51122;SDS011;37162;41.724;13.346;2024-02-23T02:41:02;2.50;;;1.67;;
51122;SDS011;37162;41.724;13.346;2024-02-23T02:43:28;2.72;;;2.30;;
51122;SDS011;37162;41.724;13.346;2024-02-23T02:45:53;2.72;;;1.65;;
51122;SDS011;37162;41.724;13.346;2024-02-23T02:48:19;3.42;;;1.85;;
51122;SDS011;37162;41.724;13.346;2024-02-23T02:50:44;2.58;;;2.00;;
51122;SDS011;37162;41.724;13.346;2024-02-23T02:53:10;2.10;;;1.73;;
51122;SDS011;37162;41.724;13.346;2024-02-23T02:55:36;2.58;;;2.00;;
51122;SDS011;37162;41.724;13.346;2024-02-23T02:58:04;2.95;;;1.77;;
51122;SDS011;37162;41.724;13.346;2024-02-23T03:00:30;2.38;;;1.83;;
51122;SDS011;37162;41.724;13.346;2024-02-23T03:02:56;3.35;;;2.13;;
51122;SDS011;37162;41.724;13.346;2024-02-23T03:05:21;2.13;;;1.52;;
51122;SDS011;37162;41.724;13.346;2024-02-23T03:07:47;2.47;;;1.60;;
51122;SDS011;37162;41.724;13.346;2024-02-23T03:10:12;4.60;;;1.70;;
51122;SDS011;37162;41.724;13.346;2024-02-23T03:12:38;2.40;;;1.80;;
51122;SDS011;37162;41.724;13.346;2024-02-23T03:15:03;2.67;;;1.90;;
51122;SDS011;37162;41.724;13.346;2024-02-23T03:17:30;1.95;;;1.75;;
51122;SDS011;37162;41.724;13.346;2024-02-23T03:19:56;2.17;;;1.70;;
51122;SDS011;37162;41.724;13.346;2024-02-23T03:22:21;1.95;;;1.73;;
51122;SDS011;37162;41.724;13.346;2024-02-23T03:24:46;2.15;;;1.52;;
51122;SDS011;37162;41.724;13.346;2024-02-23T03:27:12;2.55;;;1.80;;
51122;SDS011;37162;41.724;13.346;2024-02-23T03:29:38;2.95;;;1.98;;
51122;SDS011;37162;41.724;13.346;2024-02-23T03:32:04;2.45;;;1.67;;
51122;SDS011;37162;41.724;13.346;2024-02-23T03:34:30;2.92;;;1.60;;
51122;SDS011;37162;41.724;13.346;2024-02-23T03:36:55;2.10;;;1.70;;
51122;SDS011;37162;41.724;13.346;2024-02-23T03:39:21;2.63;;;1.50;;
51122;SDS011;37162;41.724;13.346;2024-02-23T03:41:46;2.30;;;1.52;;
51122;SDS011;37162;41.724;13.346;2024-02-23T03:44:12;6.28;;;1.80;;
51122;SDS011;37162;41.724;13.346;2024-02-23T03:46:37;2.00;;;1.60;;
51122;SDS011;37162;41.724;13.346;2024-02-23T03:49:03;1.55;;;1.17;;
51122;SDS011;37162;41.724;13.346;2024-02-23T03:51:28;3.65;;;1.90;;
51122;SDS011;37162;41.724;13.346;2024-02-23T03:53:54;2.53;;;1.48;;
51122;SDS011;37162;41.724;13.346;2024-02-23T03:56:19;3.42;;;1.38;;
51122;SDS011;37162;41.724;13.346;2024-02-23T03:58:45;2.58;;;1.73;;
51122;SDS011;37162;41.724;13.346;2024-02-23T04:01:10;2.17;;;1.80;;
51122;SDS011;37162;41.724;13.346;2024-02-23T04:03:36;5.60;;;1.75;;
51122;SDS011;37162;41.724;13.346;2024-02-23T04:06:01;8.60;;;1.80;;
51122;SDS011;37162;41.724;13.346;2024-02-23T04:08:27;2.70;;;1.85;;
51122;SDS011;37162;41.724;13.346;2024-02-23T04:10:52;2.42;;;1.50;;
51122;SDS011;37162;41.724;13.346;2024-02-23T04:13:17;9.60;;;2.80;;
51122;SDS011;37162;41.724;13.346;2024-02-23T04:15:43;4.03;;;1.80;;
51122;SDS011;37162;41.724;13.346;2024-02-23T04:18:09;3.40;;;2.05;;
51122;SDS011;37162;41.724;13.346;2024-02-23T04:20:34;3.45;;;1.90;;
51122;SDS011;37162;41.724;13.346;2024-02-23T04:23:00;2.10;;;1.60;;
51122;SDS011;37162;41.724;13.346;2024-02-23T04:25:25;3.95;;;1.88;;
51122;SDS011;37162;41.724;13.346;2024-02-23T04:27:51;3.75;;;1.90;;
51122;SDS011;37162;41.724;13.346;2024-02-23T04:30:16;3.83;;;1.45;;
51122;SDS011;37162;41.724;13.346;2024-02-23T04:32:42;2.90;;;1.63;;
51122;SDS011;37162;41.724;13.346;2024-02-23T04:35:09;4.32;;;1.70;;
51122;SDS011;37162;41.724;13.346;2024-02-23T04:37:34;2.55;;;1.48;;
51122;SDS011;37162;41.724;13.346;2024-02-23T04:40:00;3.20;;;1.65;;
51122;SDS011;37162;41.724;13.346;2024-02-23T04:42:25;2.75;;;1.77;;
51122;SDS011;37162;41.724;13.346;2024-02-23T04:44:51;3.08;;;1.67;;
51122;SDS011;37162;41.724;13.346;2024-02-23T04:47:19;1.80;;;1.60;;
51122;SDS011;37162;41.724;13.346;2024-02-23T04:49:45;1.85;;;1.65;;
51122;SDS011;37162;41.724;13.346;2024-02-23T04:52:10;3.13;;;1.58;;
51122;SDS011;37162;41.724;13.346;2024-02-23T04:54:36;1.80;;;1.67;;
51122;SDS011;37162;41.724;13.346;2024-02-23T04:57:01;4.03;;;2.10;;
51122;SDS011;37162;41.724;13.346;2024-02-23T04:59:27;2.33;;;1.65;;
51122;SDS011;37162;41.724;13.346;2024-02-23T05:01:53;1.90;;;1.75;;
51122;SDS011;37162;41.724;13.346;2024-02-23T05:04:18;1.95;;;1.52;;
51122;SDS011;37162;41.724;13.346;2024-02-23T05:06:44;3.05;;;1.80;;
51122;SDS011;37162;41.724;13.346;2024-02-23T05:09:09;2.50;;;2.00;;
51122;SDS011;37162;41.724;13.346;2024-02-23T05:11:36;2.63;;;1.92;;
51122;SDS011;37162;41.724;13.346;2024-02-23T05:14:01;2.92;;;1.88;;
51122;SDS011;37162;41.724;13.346;2024-02-23T05:16:26;3.35;;;2.15;;
51122;SDS011;37162;41.724;13.346;2024-02-23T05:18:55;3.42;;;1.88;;
51122;SDS011;37162;41.724;13.346;2024-02-23T05:21:20;5.90;;;2.45;;
51122;SDS011;37162;41.724;13.346;2024-02-23T05:23:46;2.55;;;2.30;;
51122;SDS011;37162;41.724;13.346;2024-02-23T05:26:11;2.28;;;2.05;;
51122;SDS011;37162;41.724;13.346;2024-02-23T05:28:37;3.83;;;2.13;;
51122;SDS011;37162;41.724;13.346;2024-02-23T05:31:03;3.33;;;1.95;;
51122;SDS011;37162;41.724;13.346;2024-02-23T05:33:29;5.40;;;2.25;;
51122;SDS011;37162;41.724;13.346;2024-02-23T05:35:55;2.90;;;2.25;;
51122;SDS011;37162;41.724;13.346;2024-02-23T05:38:20;2.38;;;1.92;;
51122;SDS011;37162;41.724;13.346;2024-02-23T05:40:46;4.07;;;2.50;;
51122;SDS011;37162;41.724;13.346;2024-02-23T05:43:12;2.40;;;1.90;;
51122;SDS011;37162;41.724;13.346;2024-02-23T05:45:37;5.22;;;2.47;;
51122;SDS011;37162;41.724;13.346;2024-02-23T05:48:03;3.40;;;2.10;;
51122;SDS011;37162;41.724;13.346;2024-02-23T05:50:29;7.53;;;2.67;;
51122;SDS011;37162;41.724;13.346;2024-02-23T05:52:54;8.25;;;2.83;;
51122;SDS011;37162;41.724;13.346;2024-02-23T05:55:20;10.63;;;2.75;;
51122;SDS011;37162;41.724;13.346;2024-02-23T05:57:45;3.40;;;2.13;;
51122;SDS011;37162;41.724;13.346;2024-02-23T06:00:11;4.35;;;2.30;;
51122;SDS011;37162;41.724;13.346;2024-02-23T06:02:37;4.68;;;2.47;;
51122;SDS011;37162;41.724;13.346;2024-02-23T06:05:04;3.78;;;2.22;;
51122;SDS011;37162;41.724;13.346;2024-02-23T06:07:32;3.78;;;2.38;;
51122;SDS011;37162;41.724;13.346;2024-02-23T06:09:58;4.88;;;2.60;;
51122;SDS011;37162;41.724;13.346;2024-02-23T06:12:24;3.90;;;2.40;;
51122;SDS011;37162;41.724;13.346;2024-02-23T06:14:50;5.22;;;2.58;;
51122;SDS011;37162;41.724;13.346;2024-02-23T06:17:16;3.10;;;2.58;;
51122;SDS011;37162;41.724;13.346;2024-02-23T06:19:42;4.50;;;2.90;;
51122;SDS011;37162;41.724;13.346;2024-02-23T06:22:07;6.03;;;3.08;;
51122;SDS011;37162;41.724;13.346;2024-02-23T06:24:35;5.45;;;2.60;;
51122;SDS011;37162;41.724;13.346;2024-02-23T06:27:01;3.92;;;2.67;;
51122;SDS011;37162;41.724;13.346;2024-02-23T06:29:28;4.38;;;2.75;;
51122;SDS011;37162;41.724;13.346;2024-02-23T06:31:54;6.30;;;2.90;;
51122;SDS011;37162;41.724;13.346;2024-02-23T06:34:19;4.43;;;2.80;;
51122;SDS011;37162;41.724;13.346;2024-02-23T06:36:44;5.88;;;2.65;;
51122;SDS011;37162;41.724;13.346;2024-02-23T06:39:10;4.30;;;2.45;;
51122;SDS011;37162;41.724;13.346;2024-02-23T06:41:36;5.03;;;2.22;;
51122;SDS011;37162;41.724;13.346;2024-02-23T06:44:04;4.47;;;2.53;;
51122;SDS011;37162;41.724;13.346;2024-02-23T06:46:29;5.30;;;2.40;;
51122;SDS011;37162;41.724;13.346;2024-02-23T06:48:55;5.18;;;2.60;;
51122;SDS011;37162;41.724;13.346;2024-02-23T06:51:21;4.15;;;2.60;;
51122;SDS011;37162;41.724;13.346;2024-02-23T06:53:46;6.47;;;3.03;;
51122;SDS011;37162;41.724;13.346;2024-02-23T06:56:12;5.03;;;2.67;;
51122;SDS011;37162;41.724;13.346;2024-02-23T06:58:37;3.28;;;2.30;;
51122;SDS011;37162;41.724;13.346;2024-02-23T07:01:04;4.88;;;2.40;;
51122;SDS011;37162;41.724;13.346;2024-02-23T07:03:30;3.88;;;2.70;;
51122;SDS011;37162;41.724;13.346;2024-02-23T07:05:57;4.82;;;2.42;;
51122;SDS011;37162;41.724;13.346;2024-02-23T07:08:22;4.45;;;2.95;;
51122;SDS011;37162;41.724;13.346;2024-02-23T07:10:47;6.45;;;3.00;;
51122;SDS011;37162;41.724;13.346;2024-02-23T07:13:13;6.47;;;3.13;;
51122;SDS011;37162;41.724;13.346;2024-02-23T07:15:38;3.55;;;2.67;;
51122;SDS011;37162;41.724;13.346;2024-02-23T07:18:04;5.38;;;2.90;;
51122;SDS011;37162;41.724;13.346;2024-02-23T07:20:30;8.32;;;3.08;;
51122;SDS011;37162;41.724;13.346;2024-02-23T07:22:55;6.05;;;3.15;;
51122;SDS011;37162;41.724;13.346;2024-02-23T07:25:21;4.65;;;2.85;;
51122;SDS011;37162;41.724;13.346;2024-02-23T07:27:47;5.50;;;2.67;;
51122;SDS011;37162;41.724;13.346;2024-02-23T07:30:15;7.05;;;3.30;;
51122;SDS011;37162;41.724;13.346;2024-02-23T07:32:43;5.13;;;3.13;;
51122;SDS011;37162;41.724;13.346;2024-02-23T07:35:09;7.43;;;3.25;;
51122;SDS011;37162;41.724;13.346;2024-02-23T07:37:38;4.15;;;2.45;;
51122;SDS011;37162;41.724;13.346;2024-02-23T07:40:04;7.90;;;3.28;;
51122;SDS011;37162;41.724;13.346;2024-02-23T07:42:39;5.35;;;2.80;;
51122;SDS011;37162;41.724;13.346;2024-02-23T07:45:05;6.63;;;3.15;;
51122;SDS011;37162;41.724;13.346;2024-02-23T07:47:34;3.50;;;2.65;;
51122;SDS011;37162;41.724;13.346;2024-02-23T07:50:00;4.18;;;3.00;;
51122;SDS011;37162;41.724;13.346;2024-02-23T07:52:25;5.50;;;2.80;;
51122;SDS011;37162;41.724;13.346;2024-02-23T07:54:52;4.45;;;2.95;;
51122;SDS011;37162;41.724;13.346;2024-02-23T07:57:20;10.55;;;3.05;;
51122;SDS011;37162;41.724;13.346;2024-02-23T07:59:46;5.18;;;2.85;;
51122;SDS011;37162;41.724;13.346;2024-02-23T08:02:12;4.68;;;2.50;;
51122;SDS011;37162;41.724;13.346;2024-02-23T08:04:39;4.80;;;2.88;;
51122;SDS011;37162;41.724;13.346;2024-02-23T08:07:04;4.93;;;2.80;;
51122;SDS011;37162;41.724;13.346;2024-02-23T08:09:30;5.15;;;3.47;;
51122;SDS011;37162;41.724;13.346;2024-02-23T08:11:55;6.22;;;3.58;;
51122;SDS011;37162;41.724;13.346;2024-02-23T08:14:21;6.20;;;3.72;;
51122;SDS011;37162;41.724;13.346;2024-02-23T08:16:46;10.15;;;4.30;;
51122;SDS011;37162;41.724;13.346;2024-02-23T08:19:12;15.75;;;4.28;;
51122;SDS011;37162;41.724;13.346;2024-02-23T08:21:37;11.40;;;3.50;;
51122;SDS011;37162;41.724;13.346;2024-02-23T08:24:04;6.80;;;3.33;;
51122;SDS011;37162;41.724;13.346;2024-02-23T08:26:30;10.50;;;3.47;;
51122;SDS011;37162;41.724;13.346;2024-02-23T08:28:55;15.95;;;4.55;;
51122;SDS011;37162;41.724;13.346;2024-02-23T08:31:21;10.88;;;4.65;;
51122;SDS011;37162;41.724;13.346;2024-02-23T08:33:46;9.93;;;3.75;;
51122;SDS011;37162;41.724;13.346;2024-02-23T08:36:12;10.43;;;4.50;;
51122;SDS011;37162;41.724;13.346;2024-02-23T08:38:37;13.15;;;3.85;;
51122;SDS011;37162;41.724;13.346;2024-02-23T08:41:03;8.50;;;4.50;;
51122;SDS011;37162;41.724;13.346;2024-02-23T08:43:29;15.05;;;4.10;;
51122;SDS011;37162;41.724;13.346;2024-02-23T08:45:55;8.18;;;4.63;;
51122;SDS011;37162;41.724;13.346;2024-02-23T08:48:20;8.18;;;4.20;;
51122;SDS011;37162;41.724;13.346;2024-02-23T08:50:45;7.45;;;4.20;;
51122;SDS011;37162;41.724;13.346;2024-02-23T08:53:11;12.90;;;3.92;;
51122;SDS011;37162;41.724;13.346;2024-02-23T08:55:36;10.07;;;3.90;;
51122;SDS011;37162;41.724;13.346;2024-02-23T08:58:02;11.73;;;4.28;;
51122;SDS011;37162;41.724;13.346;2024-02-23T09:00:27;8.57;;;4.15;;
51122;SDS011;37162;41.724;13.346;2024-02-23T09:02:53;8.25;;;4.10;;
51122;SDS011;37162;41.724;13.346;2024-02-23T09:05:19;6.00;;;3.38;;
51122;SDS011;37162;41.724;13.346;2024-02-23T09:07:45;6.03;;;3.30;;
51122;SDS011;37162;41.724;13.346;2024-02-23T09:10:11;7.82;;;3.58;;
51122;SDS011;37162;41.724;13.346;2024-02-23T09:12:37;6.95;;;3.50;;
51122;SDS011;37162;41.724;13.346;2024-02-23T09:15:03;5.10;;;3.42;;
51122;SDS011;37162;41.724;13.346;2024-02-23T09:17:30;8.55;;;4.18;;
51122;SDS011;37162;41.724;13.346;2024-02-23T09:19:55;6.97;;;3.70;;
51122;SDS011;37162;41.724;13.346;2024-02-23T09:22:21;6.35;;;3.30;;
51122;SDS011;37162;41.724;13.346;2024-02-23T09:24:47;4.25;;;3.42;;
51122;SDS011;37162;41.724;13.346;2024-02-23T09:27:13;6.55;;;3.58;;
51122;SDS011;37162;41.724;13.346;2024-02-23T09:29:40;5.82;;;3.35;;
51122;SDS011;37162;41.724;13.346;2024-02-23T09:32:06;5.93;;;3.55;;
51122;SDS011;37162;41.724;13.346;2024-02-23T09:34:31;5.50;;;3.70;;
51122;SDS011;37162;41.724;13.346;2024-02-23T09:36:57;7.03;;;3.45;;
51122;SDS011;37162;41.724;13.346;2024-02-23T09:39:22;8.30;;;3.53;;
51122;SDS011;37162;41.724;13.346;2024-02-23T09:41:50;8.32;;;3.58;;
51122;SDS011;37162;41.724;13.346;2024-02-23T09:44:16;4.82;;;3.20;;
51122;SDS011;37162;41.724;13.346;2024-02-23T09:46:46;6.03;;;3.83;;
51122;SDS011;37162;41.724;13.346;2024-02-23T09:49:11;9.27;;;3.53;;
51122;SDS011;37162;41.724;13.346;2024-02-23T09:51:39;7.95;;;3.67;;
51122;SDS011;37162;41.724;13.346;2024-02-23T09:54:04;6.40;;;3.83;;
51122;SDS011;37162;41.724;13.346;2024-02-23T09:56:30;5.50;;;3.28;;
51122;SDS011;37162;41.724;13.346;2024-02-23T09:58:57;7.03;;;3.72;;
51122;SDS011;37162;41.724;13.346;2024-02-23T10:01:27;7.50;;;3.60;;
51122;SDS011;37162;41.724;13.346;2024-02-23T10:03:56;5.70;;;3.55;;
51122;SDS011;37162;41.724;13.346;2024-02-23T10:06:22;5.57;;;3.30;;
51122;SDS011;37162;41.724;13.346;2024-02-23T10:08:49;3.88;;;3.20;;
51122;SDS011;37162;41.724;13.346;2024-02-23T10:11:17;8.13;;;3.58;;
51122;SDS011;37162;41.724;13.346;2024-02-23T10:13:43;6.25;;;3.92;;
51122;SDS011;37162;41.724;13.346;2024-02-23T10:16:09;6.93;;;3.85;;
51122;SDS011;37162;41.724;13.346;2024-02-23T10:18:34;9.18;;;4.60;;
51122;SDS011;37162;41.724;13.346;2024-02-23T10:21:04;5.18;;;3.55;;
51122;SDS011;37162;41.724;13.346;2024-02-23T10:23:30;6.45;;;3.90;;
51122;SDS011;37162;41.724;13.346;2024-02-23T10:25:55;7.30;;;3.70;;
51122;SDS011;37162;41.724;13.346;2024-02-23T10:28:21;9.20;;;3.55;;
51122;SDS011;37162;41.724;13.346;2024-02-23T10:30:48;7.80;;;2.97;;
51122;SDS011;37162;41.724;13.346;2024-02-23T10:33:14;8.32;;;3.78;;
51122;SDS011;37162;41.724;13.346;2024-02-23T10:35:39;7.70;;;3.38;;
51122;SDS011;37162;41.724;13.346;2024-02-23T10:38:08;8.05;;;3.70;;
51122;SDS011;37162;41.724;13.346;2024-02-23T10:40:38;4.90;;;3.25;;
51122;SDS011;37162;41.724;13.346;2024-02-23T10:43:05;9.50;;;2.90;;
51122;SDS011;37162;41.724;13.346;2024-02-23T10:45:37;8.48;;;3.90;;
51122;SDS011;37162;41.724;13.346;2024-02-23T10:48:04;4.80;;;3.15;;
51122;SDS011;37162;41.724;13.346;2024-02-23T10:50:34;8.32;;;3.35;;
51122;SDS011;37162;41.724;13.346;2024-02-23T10:53:01;6.65;;;3.55;;
51122;SDS011;37162;41.724;13.346;2024-02-23T10:55:27;5.90;;;3.08;;
51122;SDS011;37162;41.724;13.346;2024-02-23T10:57:54;5.07;;;2.80;;
51122;SDS011;37162;41.724;13.346;2024-02-23T11:00:21;4.97;;;3.17;;
51122;SDS011;37162;41.724;13.346;2024-02-23T11:02:50;11.90;;;3.90;;
51122;SDS011;37162;41.724;13.346;2024-02-23T11:05:18;7.95;;;3.45;;
51122;SDS011;37162;41.724;13.346;2024-02-23T11:07:47;7.85;;;3.60;;
51122;SDS011;37162;41.724;13.346;2024-02-23T11:10:16;5.53;;;3.65;;
51122;SDS011;37162;41.724;13.346;2024-02-23T11:12:42;8.10;;;3.95;;
51122;SDS011;37162;41.724;13.346;2024-02-23T11:15:08;5.70;;;3.55;;
51122;SDS011;37162;41.724;13.346;2024-02-23T11:17:36;7.00;;;3.75;;
51122;SDS011;37162;41.724;13.346;2024-02-23T11:20:03;7.28;;;3.28;;
51122;SDS011;37162;41.724;13.346;2024-02-23T11:22:33;6.68;;;3.38;;
51122;SDS011;37162;41.724;13.346;2024-02-23T11:25:03;7.53;;;3.15;;
51122;SDS011;37162;41.724;13.346;2024-02-23T11:27:40;7.45;;;3.25;;
51122;SDS011;37162;41.724;13.346;2024-02-23T11:30:09;7.03;;;3.30;;
51122;SDS011;37162;41.724;13.346;2024-02-23T11:32:46;6.80;;;3.15;;
51122;SDS011;37162;41.724;13.346;2024-02-23T11:35:16;8.35;;;3.63;;
51122;SDS011;37162;41.724;13.346;2024-02-23T11:37:51;7.13;;;3.38;;
51122;SDS011;37162;41.724;13.346;2024-02-23T11:40:28;6.75;;;3.28;;
51122;SDS011;37162;41.724;13.346;2024-02-23T11:42:55;6.93;;;3.72;;
51122;SDS011;37162;41.724;13.346;2024-02-23T11:45:21;5.32;;;3.55;;
51122;SDS011;37162;41.724;13.346;2024-02-23T11:47:47;5.60;;;2.70;;
51122;SDS011;37162;41.724;13.346;2024-02-23T11:50:13;8.27;;;3.47;;
51122;SDS011;37162;41.724;13.346;2024-02-23T11:52:40;6.78;;;3.58;;
51122;SDS011;37162;41.724;13.346;2024-02-23T11:55:06;5.47;;;3.15;;
51122;SDS011;37162;41.724;13.346;2024-02-23T11:57:33;6.10;;;2.90;;
51122;SDS011;37162;41.724;13.346;2024-02-23T12:00:00;7.30;;;3.35;;
51122;SDS011;37162;41.724;13.346;2024-02-23T12:02:27;5.68;;;3.13;;
51122;SDS011;37162;41.724;13.346;2024-02-23T12:04:52;7.68;;;3.83;;
51122;SDS011;37162;41.724;13.346;2024-02-23T12:07:18;5.95;;;3.35;;
51122;SDS011;37162;41.724;13.346;2024-02-23T12:09:44;7.05;;;3.25;;
51122;SDS011;37162;41.724;13.346;2024-02-23T12:12:10;5.38;;;3.03;;
51122;SDS011;37162;41.724;13.346;2024-02-23T12:14:36;8.73;;;3.50;;
51122;SDS011;37162;41.724;13.346;2024-02-23T12:17:02;7.03;;;3.03;;
51122;SDS011;37162;41.724;13.346;2024-02-23T12:19:29;7.05;;;3.60;;
51122;SDS011;37162;41.724;13.346;2024-02-23T12:21:59;10.32;;;4.95;;
51122;SDS011;37162;41.724;13.346;2024-02-23T12:24:26;8.75;;;3.25;;
51122;SDS011;37162;41.724;13.346;2024-02-23T12:26:56;11.65;;;3.88;;
51122;SDS011;37162;41.724;13.346;2024-02-23T12:29:22;9.60;;;4.40;;
51122;SDS011;37162;41.724;13.346;2024-02-23T12:31:48;10.70;;;4.78;;
51122;SDS011;37162;41.724;13.346;2024-02-23T12:34:14;8.15;;;4.05;;
51122;SDS011;37162;41.724;13.346;2024-02-23T12:36:39;10.77;;;4.03;;
51122;SDS011;37162;41.724;13.346;2024-02-23T12:39:05;8.82;;;4.00;;
51122;SDS011;37162;41.724;13.346;2024-02-23T12:41:31;12.32;;;4.13;;
51122;SDS011;37162;41.724;13.346;2024-02-23T12:43:57;11.75;;;4.85;;
51122;SDS011;37162;41.724;13.346;2024-02-23T12:46:23;8.75;;;4.00;;
51122;SDS011;37162;41.724;13.346;2024-02-23T12:48:49;6.35;;;3.63;;
51122;SDS011;37162;41.724;13.346;2024-02-23T12:51:15;8.98;;;4.22;;
51122;SDS011;37162;41.724;13.346;2024-02-23T12:53:40;6.13;;;3.65;;
51122;SDS011;37162;41.724;13.346;2024-02-23T12:56:10;6.65;;;3.30;;
51122;SDS011;37162;41.724;13.346;2024-02-23T12:58:38;6.77;;;4.00;;
51122;SDS011;37162;41.724;13.346;2024-02-23T13:01:06;10.27;;;4.00;;
51122;SDS011;37162;41.724;13.346;2024-02-23T13:03:36;7.13;;;4.72;;
51122;SDS011;37162;41.724;13.346;2024-02-23T13:06:06;9.40;;;4.00;;
51122;SDS011;37162;41.724;13.346;2024-02-23T13:08:32;5.47;;;3.55;;
51122;SDS011;37162;41.724;13.346;2024-02-23T13:10:58;7.95;;;4.05;;
51122;SDS011;37162;41.724;13.346;2024-02-23T13:13:23;6.93;;;3.70;;
51122;SDS011;37162;41.724;13.346;2024-02-23T13:15:50;7.55;;;4.18;;
51122;SDS011;37162;41.724;13.346;2024-02-23T13:18:16;8.35;;;3.80;;
51122;SDS011;37162;41.724;13.346;2024-02-23T13:20:42;9.32;;;3.50;;
51122;SDS011;37162;41.724;13.346;2024-02-23T13:23:08;7.72;;;4.25;;
51122;SDS011;37162;41.724;13.346;2024-02-23T13:25:34;6.13;;;3.72;;
51122;SDS011;37162;41.724;13.346;2024-02-23T13:28:01;7.22;;;3.60;;
51122;SDS011;37162;41.724;13.346;2024-02-23T13:30:27;8.15;;;3.72;;
51122;SDS011;37162;41.724;13.346;2024-02-23T13:32:53;11.05;;;4.03;;
51122;SDS011;37162;41.724;13.346;2024-02-23T13:35:18;8.00;;;4.35;;
51122;SDS011;37162;41.724;13.346;2024-02-23T13:37:44;5.68;;;3.55;;
51122;SDS011;37162;41.724;13.346;2024-02-23T13:40:10;8.85;;;3.63;;
51122;SDS011;37162;41.724;13.346;2024-02-23T13:42:36;8.60;;;3.83;;
51122;SDS011;37162;41.724;13.346;2024-02-23T13:45:05;8.75;;;3.72;;
51122;SDS011;37162;41.724;13.346;2024-02-23T13:47:32;9.02;;;3.65;;
51122;SDS011;37162;41.724;13.346;2024-02-23T13:49:57;10.13;;;3.67;;
51122;SDS011;37162;41.724;13.346;2024-02-23T13:52:23;8.48;;;3.67;;
51122;SDS011;37162;41.724;13.346;2024-02-23T13:54:49;7.82;;;3.50;;
51122;SDS011;37162;41.724;13.346;2024-02-23T13:57:14;10.13;;;3.78;;
51122;SDS011;37162;41.724;13.346;2024-02-23T13:59:40;9.77;;;3.70;;
51122;SDS011;37162;41.724;13.346;2024-02-23T14:02:05;7.93;;;3.53;;
51122;SDS011;37162;41.724;13.346;2024-02-23T14:04:31;6.70;;;3.10;;
51122;SDS011;37162;41.724;13.346;2024-02-23T14:06:56;9.00;;;3.47;;
51122;SDS011;37162;41.724;13.346;2024-02-23T14:09:21;6.15;;;3.38;;
51122;SDS011;37162;41.724;13.346;2024-02-23T14:11:47;8.30;;;3.60;;
51122;SDS011;37162;41.724;13.346;2024-02-23T14:14:13;6.25;;;3.33;;
51122;SDS011;37162;41.724;13.346;2024-02-23T14:16:39;7.25;;;3.17;;
51122;SDS011;37162;41.724;13.346;2024-02-23T14:19:05;7.95;;;4.07;;
51122;SDS011;37162;41.724;13.346;2024-02-23T14:21:30;5.60;;;3.20;;
51122;SDS011;37162;41.724;13.346;2024-02-23T14:23:56;8.45;;;3.97;;
51122;SDS011;37162;41.724;13.346;2024-02-23T14:26:21;7.90;;;3.60;;